Time;durP1;ratioP1;P1;durP2;ratioP2;P2;SDS_P1;SDS_P2;PMS_P1;PMS_P2;Temp;Humidity;BMP_temperature;BMP_pressure;BME280_temperature;BME280_humidity;BME280_pressure;Samples;Min_cycle;Max_cycle;Signal;HPM_P1;HPM_P2
2024/03/18 00:01:45;;;;;;;9.87;8.80;;;;;;;10.84;100.00;154144.25;5021564;28;20463;-88
2024/03/18 00:04:12;;;;;;;15.63;9.63;;;;;;;10.83;100.00;154140.31;5024150;28;20499;-89
2024/03/18 00:06:38;;;;;;;10.77;9.10;;;;;;;10.77;100.00;154126.13;5019540;28;20487;-89
2024/03/18 00:09:05;;;;;;;12.90;10.57;;;;;;;10.79;100.00;154131.28;5016906;28;20836;-89
2024/03/18 00:11:31;;;;;;;9.53;8.57;;;;;;;10.80;100.00;154133.84;5012476;28;20444;-89
2024/03/18 00:13:59;;;;;;;11.33;9.77;;;;;;;10.79;100.00;154131.28;5024997;28;20436;-89
2024/03/18 00:16:26;;;;;;;11.23;9.73;;;;;;;10.76;100.00;154123.53;5012472;28;20467;-88
2024/03/18 00:18:52;;;;;;;10.60;9.00;;;;;;;10.81;100.00;154136.47;5016679;28;20906;-89
2024/03/18 00:21:19;;;;;;;10.30;9.30;;;;;;;10.84;100.00;154142.94;5022455;28;20439;-89
2024/03/18 00:23:45;;;;;;;10.13;9.10;;;;;;;10.89;100.00;154157.19;5013006;28;20449;-89
2024/03/18 00:26:12;;;;;;;11.30;9.40;;;;;;;10.83;100.00;154141.63;5024578;28;20451;-89
2024/03/18 00:28:39;;;;;;;8.30;7.50;;;;;;;10.82;100.00;154139.06;5019917;28;20467;-89
2024/03/18 00:31:07;;;;;;;10.80;9.70;;;;;;;10.79;100.00;154131.28;5021201;28;20484;-88
2024/03/18 00:33:34;;;;;;;11.83;9.87;;;;;;;10.78;100.00;154128.69;5011194;28;20456;-88
2024/03/18 00:36:00;;;;;;;8.43;7.60;;;;;;;10.81;100.00;154135.16;5018244;28;20962;-87
2024/03/18 00:38:27;;;;;;;9.33;7.97;;;;;;;10.82;100.00;154139.06;5021964;28;20788;-88
2024/03/18 00:41:44;;;;;;;9.70;8.70;;;;;;;10.81;100.00;154135.16;5029526;28;20512;-88
2024/03/18 00:43:42;;;;;;;10.07;9.07;;;;;;;10.80;100.00;154133.84;5023100;28;20416;-88
2024/03/18 00:46:10;;;;;;;12.07;10.13;;;;;;;10.78;100.00;154128.69;5011384;28;20499;-89
2024/03/18 00:48:37;;;;;;;12.77;9.77;;;;;;;10.76;100.00;154122.22;5025310;28;20257;-88
2024/03/18 00:51:04;;;;;;;12.63;11.43;;;;;;;10.73;100.00;154115.75;5027201;28;20460;-88
2024/03/18 00:53:32;;;;;;;10.83;9.73;;;;;;;10.71;100.00;154110.56;5012708;28;20444;-88
2024/03/18 00:55:58;;;;;;;13.10;11.03;;;;;;;10.79;100.00;154131.28;5023757;28;20491;-88
2024/03/18 00:58:25;;;;;;;12.07;10.43;;;;;;;10.76;100.00;154123.53;5024081;28;20864;-88
2024/03/18 01:00:51;;;;;;;12.23;10.40;;;;;;;10.73;100.00;154115.75;5024441;28;20456;-89
2024/03/18 01:03:18;;;;;;;12.83;11.10;;;;;;;10.73;100.00;154115.75;5030879;28;20941;-88
2024/03/18 01:05:45;;;;;;;11.67;10.30;;;;;;;10.72;100.00;154113.13;5031381;28;20575;-87
2024/03/18 01:08:11;;;;;;;11.80;10.60;;;;;;;10.72;100.00;154113.13;5009612;28;20457;-88
2024/03/18 01:10:37;;;;;;;11.83;10.60;;;;;;;10.72;100.00;154111.88;5005995;28;20519;-89
2024/03/18 01:13:07;;;;;;;10.87;9.70;;;;;;;10.69;100.00;154104.09;4985447;28;20523;-88
2024/03/18 01:15:34;;;;;;;11.20;10.00;;;;;;;10.65;100.00;154095.03;4995147;28;20448;-89
2024/03/18 01:18:00;;;;;;;11.20;9.80;;;;;;;10.67;100.00;154098.94;5000851;28;20465;-88
2024/03/18 01:20:28;;;;;;;10.60;9.50;;;;;;;10.66;100.00;154097.63;5006324;28;20460;-88
2024/03/18 01:22:55;;;;;;;11.53;10.33;;;;;;;10.64;100.00;154091.16;5006119;28;20472;-88
2024/03/18 01:25:22;;;;;;;11.97;10.27;;;;;;;10.64;100.00;154091.16;5005985;28;20558;-88
2024/03/18 01:27:49;;;;;;;13.60;11.37;;;;;;;10.65;100.00;154093.72;5009293;28;20433;-88
2024/03/18 01:30:15;;;;;;;11.50;10.03;;;;;;;10.63;100.00;154089.84;5009472;28;20812;-88
2024/03/18 01:32:42;;;;;;;11.27;10.07;;;;;;;10.61;100.00;154084.69;5001471;28;20421;-88
2024/03/18 01:35:12;;;;;;;11.47;10.30;;;;;;;10.65;100.00;154093.72;5009695;28;20475;-88
2024/03/18 01:37:40;;;;;;;11.77;10.63;;;;;;;10.64;100.00;154092.47;5007332;28;20540;-89
2024/03/18 01:40:09;;;;;;;11.53;10.03;;;;;;;10.61;100.00;154083.38;4985385;28;20511;-88
2024/03/18 01:42:35;;;;;;;13.47;10.93;;;;;;;10.61;100.00;154084.69;5009667;28;21099;-88
2024/03/18 01:45:03;;;;;;;15.10;11.40;;;;;;;10.62;100.00;154085.94;5007270;28;20509;-88
2024/03/18 01:47:30;;;;;;;10.90;9.80;;;;;;;10.58;100.00;154076.91;5004942;28;20536;-88
2024/03/18 01:49:56;;;;;;;13.27;11.17;;;;;;;10.60;100.00;154082.06;4993959;28;20437;-88
2024/03/18 01:52:23;;;;;;;11.73;10.47;;;;;;;10.58;100.00;154076.91;5007675;28;20783;-87
2024/03/18 01:54:51;;;;;;;13.20;11.80;;;;;;;10.54;100.00;154066.53;5008809;28;20436;-88
2024/03/18 01:57:18;;;;;;;13.47;11.20;;;;;;;10.56;100.00;154071.75;5010228;28;20436;-88
2024/03/18 01:59:45;;;;;;;13.60;10.97;;;;;;;10.54;100.00;154066.53;5006993;28;20445;-88
2024/03/18 02:02:11;;;;;;;13.73;11.60;;;;;;;10.53;100.00;154063.97;4984954;28;20879;-87
2024/03/18 02:04:38;;;;;;;14.17;11.80;;;;;;;10.51;100.00;154058.75;5003186;28;20978;-88
2024/03/18 02:07:20;;;;;;;12.20;10.87;;;;;;;10.51;100.00;154058.75;5009571;28;20938;-87
2024/03/18 02:09:47;;;;;;;14.30;11.60;;;;;;;10.53;100.00;154063.97;5018084;28;20549;-88
2024/03/18 02:12:16;;;;;;;12.70;11.40;;;;;;;10.54;100.00;154065.28;5016725;28;20459;-88
2024/03/18 02:14:45;;;;;;;14.33;11.83;;;;;;;10.53;100.00;154062.66;5023833;28;20487;-88
2024/03/18 02:17:12;;;;;;;13.00;11.80;;;;;;;10.50;100.00;154056.19;5031787;28;20932;-88
2024/03/18 02:19:39;;;;;;;14.63;11.50;;;;;;;10.50;100.00;154056.19;5027111;28;20933;-88
2024/03/18 02:22:08;;;;;;;13.53;12.17;;;;;;;10.52;100.00;154061.34;5022158;28;20449;-88
2024/03/18 02:24:34;;;;;;;17.60;12.40;;;;;;;10.48;100.00;154049.72;5017357;28;20479;-88
2024/03/18 02:27:05;;;;;;;14.47;12.10;;;;;;;10.49;100.00;154053.59;5021137;28;20522;-88
2024/03/18 02:29:31;;;;;;;13.77;12.10;;;;;;;10.51;100.00;154057.50;5012310;28;20448;-88
2024/03/18 02:31:58;;;;;;;13.23;11.40;;;;;;;10.50;100.00;154056.19;5026135;28;20441;-88
2024/03/18 02:34:25;;;;;;;14.70;12.37;;;;;;;10.49;100.00;154053.59;5022313;28;20452;-88
2024/03/18 02:36:52;;;;;;;14.23;12.03;;;;;;;10.47;100.00;154047.13;5024761;28;20992;-88
2024/03/18 02:39:22;;;;;;;17.03;12.97;;;;;;;10.46;100.00;154045.81;5023364;28;20482;-87
2024/03/18 02:41:48;;;;;;;12.33;11.03;;;;;;;10.49;100.00;154053.59;5014751;28;20543;-87
2024/03/18 02:44:16;;;;;;;13.60;11.17;;;;;;;10.48;100.00;154051.03;5022501;28;20472;-87
2024/03/18 02:46:43;;;;;;;12.33;11.00;;;;;;;10.46;100.00;154045.81;5019638;28;21492;-88
2024/03/18 02:49:09;;;;;;;15.90;13.70;;;;;;;10.45;100.00;154043.25;5020179;28;20429;-89
2024/03/18 02:51:36;;;;;;;13.20;11.73;;;;;;;10.44;100.00;154039.34;5027462;28;20946;-89
2024/03/18 02:54:02;;;;;;;14.73;13.13;;;;;;;10.51;100.00;154058.75;5009889;28;20870;-87
2024/03/18 02:56:30;;;;;;;12.53;11.33;;;;;;;10.49;100.00;154052.28;5011117;28;20791;-87
2024/03/18 02:58:57;;;;;;;14.13;11.83;;;;;;;10.57;100.00;154074.31;5019496;28;20451;-87
2024/03/18 03:01:23;;;;;;;13.43;11.27;;;;;;;10.65;100.00;154095.03;5028486;28;20455;-87
2024/03/18 03:03:51;;;;;;;13.43;11.97;;;;;;;10.56;100.00;154071.75;5019538;28;20437;-88
2024/03/18 03:06:18;;;;;;;13.50;11.60;;;;;;;10.46;100.00;154044.56;5016038;28;20587;-88
2024/03/18 03:08:44;;;;;;;16.63;12.33;;;;;;;10.42;100.00;154034.16;5027545;28;20475;-88
2024/03/18 03:11:11;;;;;;;13.20;11.63;;;;;;;10.48;100.00;154051.03;5034965;28;20535;-88
2024/03/18 03:13:39;;;;;;;14.77;12.40;;;;;;;10.47;100.00;154048.41;5024231;28;20452;-88
2024/03/18 03:16:09;;;;;;;13.30;11.27;;;;;;;10.51;100.00;154058.75;5025195;28;20954;-88
2024/03/18 03:18:36;;;;;;;13.60;10.10;;;;;;;10.52;100.00;154061.34;5008485;28;20562;-87
2024/03/18 03:21:05;;;;;;;14.20;11.87;;;;;;;10.47;100.00;154048.41;5026221;28;21076;-88
2024/03/18 03:23:32;;;;;;;13.90;11.77;;;;;;;10.44;100.00;154039.34;5025117;28;20453;-88
2024/03/18 03:25:59;;;;;;;15.13;12.43;;;;;;;10.45;100.00;154041.94;5021367;28;20498;-88
2024/03/18 03:28:26;;;;;;;13.07;10.20;;;;;;;10.45;100.00;154041.94;5020601;28;20443;-88
2024/03/18 03:31:02;;;;;;;12.43;10.67;;;;;;;10.45;100.00;154041.94;5011101;28;20827;-88
2024/03/18 03:33:27;;;;;;;18.57;12.40;;;;;;;10.45;100.00;154043.25;5026427;28;20961;-88
2024/03/18 03:35:55;;;;;;;13.30;11.90;;;;;;;10.46;100.00;154045.81;5007541;28;20463;-87
2024/03/18 03:38:22;;;;;;;14.80;12.57;;;;;;;10.46;100.00;154045.81;5025289;28;20613;-87
2024/03/18 03:40:51;;;;;;;16.07;12.17;;;;;;;10.43;100.00;154038.09;5016656;28;20985;-88
2024/03/18 03:43:17;;;;;;;13.60;12.00;;;;;;;10.43;100.00;154038.09;5021774;28;20460;-88
2024/03/18 03:45:47;;;;;;;15.83;12.60;;;;;;;10.44;100.00;154040.63;5026029;28;20514;-87
2024/03/18 03:48:15;;;;;;;13.00;11.60;;;;;;;10.43;100.00;154036.78;5018670;28;20433;-88
2024/03/18 03:50:42;;;;;;;13.93;12.00;;;;;;;10.42;100.00;154034.16;5017633;28;20456;-87
2024/03/18 03:53:08;;;;;;;13.30;11.90;;;;;;;10.42;100.00;154035.47;5007390;28;20455;-88
2024/03/18 03:55:38;;;;;;;12.03;10.80;;;;;;;10.41;100.00;154032.88;5030339;28;20865;-88
2024/03/18 03:58:04;;;;;;;14.37;12.97;;;;;;;10.40;100.00;154030.31;5030419;28;20462;-87
2024/03/18 04:00:32;;;;;;;14.33;12.73;;;;;;;10.42;100.00;154034.16;5021702;28;20992;-87
2024/03/18 04:02:58;;;;;;;13.60;12.23;;;;;;;10.42;100.00;154034.16;5030204;28;20826;-87
2024/03/18 04:05:26;;;;;;;13.20;11.90;;;;;;;10.37;100.00;154023.84;5019720;28;20468;-88
2024/03/18 04:07:53;;;;;;;14.60;12.30;;;;;;;10.33;100.00;154013.47;5014401;28;20826;-87
2024/03/18 04:10:19;;;;;;;14.53;12.47;;;;;;;10.30;100.00;154004.38;5029512;28;20561;-88
2024/03/18 04:12:46;;;;;;;12.87;11.57;;;;;;;10.26;100.00;153994.03;5027902;28;21010;-88
2024/03/18 04:15:13;;;;;;;12.70;11.23;;;;;;;10.24;100.00;153990.19;5028538;28;20454;-88
2024/03/18 04:17:39;;;;;;;16.33;13.07;;;;;;;10.21;100.00;153982.41;5026570;28;20783;-87
2024/03/18 04:20:18;;;;;;;13.80;11.10;;;;;;;10.18;100.00;153973.34;5030580;28;20436;-87
2024/03/18 04:22:47;;;;;;;12.40;11.07;;;;;;;10.13;100.00;153960.41;5008099;28;20450;-87
2024/03/18 04:25:14;;;;;;;14.00;12.23;;;;;;;10.14;100.00;153963.00;5026986;28;21012;-88
2024/03/18 04:27:41;;;;;;;14.03;11.83;;;;;;;10.15;100.00;153965.56;5026194;28;20457;-87
2024/03/18 04:30:12;;;;;;;13.20;11.80;;;;;;;10.16;100.00;153969.47;5027500;28;20440;-88
2024/03/18 04:32:40;;;;;;;16.53;12.60;;;;;;;10.19;100.00;153975.94;5012519;28;20447;-88
2024/03/18 04:35:25;;;;;;;13.50;12.20;;;;;;;10.21;100.00;153981.09;5008524;28;20440;-88
2024/03/18 04:37:55;;;;;;;14.07;12.20;;;;;;;10.21;100.00;153981.09;5027312;28;20455;-88
2024/03/18 04:40:22;;;;;;;17.33;12.90;;;;;;;10.24;100.00;153988.88;5028558;28;20481;-87
2024/03/18 04:42:49;;;;;;;14.07;12.57;;;;;;;10.24;100.00;153988.88;5030032;28;20443;-88
2024/03/18 04:45:16;;;;;;;13.63;12.13;;;;;;;10.23;100.00;153986.28;5020960;28;20479;-88
2024/03/18 04:47:44;;;;;;;16.13;12.33;;;;;;;10.22;100.00;153983.66;5030260;28;20440;-87
2024/03/18 04:50:12;;;;;;;18.20;13.07;;;;;;;10.21;100.00;153981.09;5011918;28;20440;-87
2024/03/18 04:52:39;;;;;;;14.17;12.67;;;;;;;10.20;100.00;153978.50;5025476;28;20860;-88
2024/03/18 04:55:08;;;;;;;14.17;12.60;;;;;;;10.18;100.00;153973.34;5028209;28;20447;-88
2024/03/18 04:57:35;;;;;;;14.30;12.23;;;;;;;10.19;100.00;153977.19;5014645;28;20518;-88
2024/03/18 05:00:05;;;;;;;15.17;12.70;;;;;;;10.25;100.00;153991.44;5029359;28;20436;-87
2024/03/18 05:02:32;;;;;;;13.83;12.33;;;;;;;10.24;100.00;153990.19;5024481;28;20822;-87
2024/03/18 05:04:58;;;;;;;15.10;11.83;;;;;;;10.26;100.00;153994.03;5022494;28;20460;-88
2024/03/18 05:07:25;;;;;;;15.23;13.43;;;;;;;10.26;100.00;153995.34;5030802;28;20868;-87
2024/03/18 05:09:54;;;;;;;14.33;12.83;;;;;;;10.22;100.00;153983.66;5031550;28;20459;-88
2024/03/18 05:12:22;;;;;;;13.93;12.43;;;;;;;10.22;100.00;153983.66;5032151;28;20815;-88
2024/03/18 05:14:49;;;;;;;14.07;12.57;;;;;;;10.27;100.00;153996.66;5013528;28;20538;-87
2024/03/18 05:17:16;;;;;;;15.57;13.90;;;;;;;10.28;100.00;153999.22;5016362;28;20801;-87
2024/03/18 05:19:42;;;;;;;14.43;12.93;;;;;;;10.25;100.00;153992.75;5025272;28;20460;-88
2024/03/18 05:22:09;;;;;;;14.90;12.80;;;;;;;10.24;100.00;153988.88;5030393;28;20506;-87
2024/03/18 05:24:37;;;;;;;13.37;12.00;;;;;;;10.22;100.00;153983.66;5012807;28;20452;-87
2024/03/18 05:27:04;;;;;;;14.30;12.73;;;;;;;10.20;100.00;153978.50;5030720;28;20479;-88
2024/03/18 05:29:32;;;;;;;14.03;12.53;;;;;;;10.22;100.00;153983.66;5028274;28;20474;-88
2024/03/18 05:32:06;;;;;;;16.97;12.83;;;;;;;10.17;100.00;153970.72;5021795;28;20535;-88
2024/03/18 05:34:33;;;;;;;15.20;13.37;;;;;;;10.13;100.00;153960.41;5023598;28;20452;-87
2024/03/18 05:37:13;;;;;;;16.50;13.80;;;;;;;10.12;100.00;153957.72;5021420;28;20450;-88
2024/03/18 05:39:40;;;;;;;15.40;13.80;;;;;;;10.10;100.00;153952.56;5031635;28;20459;-89
2024/03/18 05:42:07;;;;;;;16.17;13.03;;;;;;;10.14;100.00;153963.00;5029877;28;20459;-89
2024/03/18 05:44:35;;;;;;;15.57;12.90;;;;;;;10.13;100.00;153961.69;5033632;28;20456;-89
2024/03/18 05:47:03;;;;;;;14.33;12.57;;;;;;;10.12;100.00;153957.72;5026223;28;20475;-87
2024/03/18 05:49:29;;;;;;;14.23;12.83;;;;;;;10.10;100.00;153952.56;5030943;28;20443;-87
2024/03/18 05:51:56;;;;;;;14.50;13.00;;;;;;;10.10;100.00;153952.56;5038199;28;20554;-87
2024/03/18 05:54:23;;;;;;;17.27;14.03;;;;;;;10.10;100.00;153952.56;5016312;28;20460;-87
2024/03/18 05:56:49;;;;;;;17.30;12.97;;;;;;;10.14;100.00;153963.00;5009403;28;20980;-87
2024/03/18 05:59:16;;;;;;;18.80;12.87;;;;;;;10.14;100.00;153963.00;5019211;28;20456;-87
2024/03/18 06:01:46;;;;;;;16.43;12.77;;;;;;;10.12;100.00;153957.72;5029150;28;20463;-87
2024/03/18 06:04:12;;;;;;;15.10;13.27;;;;;;;10.11;100.00;153955.19;5011302;28;20455;-87
2024/03/18 06:06:39;;;;;;;15.20;13.47;;;;;;;10.15;100.00;153966.88;4991161;28;20508;-87
2024/03/18 06:09:06;;;;;;;14.20;11.50;;;;;;;10.14;100.00;153963.00;5025989;28;20482;-88
2024/03/18 06:11:33;;;;;;;15.57;13.97;;;;;;;10.15;100.00;153966.88;5006778;28;20470;-88
2024/03/18 06:14:02;;;;;;;16.60;13.83;;;;;;;10.16;100.00;153968.16;5028193;28;20460;-93
2024/03/18 06:16:28;;;;;;;15.17;13.50;;;;;;;10.16;100.00;153968.16;5024237;28;20652;-88
2024/03/18 06:18:56;;;;;;;14.50;12.60;;;;;;;10.16;100.00;153969.47;5021513;28;20464;-88
2024/03/18 06:21:28;;;;;;;13.80;12.40;;;;;;;10.18;100.00;153973.34;5020916;28;20449;-89
2024/03/18 06:23:55;;;;;;;16.13;14.50;;;;;;;10.18;100.00;153973.34;5000460;28;20456;-88
2024/03/18 06:26:20;;;;;;;14.93;13.17;;;;;;;10.17;100.00;153970.72;5022270;28;20490;-89
2024/03/18 06:28:47;;;;;;;16.70;13.50;;;;;;;10.17;100.00;153970.72;5026261;28;20927;-88
2024/03/18 06:31:15;;;;;;;17.00;13.57;;;;;;;10.20;100.00;153978.50;5022206;28;20210;-87
2024/03/18 06:33:43;;;;;;;16.13;13.63;;;;;;;10.23;100.00;153986.28;5024246;28;20482;-87
2024/03/18 06:36:11;;;;;;;19.30;13.20;;;;;;;10.23;100.00;153986.28;5024551;28;20878;-87
2024/03/18 06:38:39;;;;;;;14.40;12.90;;;;;;;10.25;100.00;153991.44;5024852;28;20837;-87
2024/03/18 06:41:09;;;;;;;14.70;13.20;;;;;;;10.25;100.00;153991.44;5020337;28;21064;-87
2024/03/18 06:43:56;;;;;;;16.53;13.80;;;;;;;10.27;100.00;153997.91;5022296;28;20443;-87
2024/03/18 06:46:29;;;;;;;15.60;14.00;;;;;;;10.30;100.00;154004.38;5020912;28;20881;-87
2024/03/18 06:48:55;;;;;;;15.57;12.60;;;;;;;10.31;100.00;154007.00;5022687;28;20986;-87
2024/03/18 06:51:23;;;;;;;19.67;17.10;;;;;;;10.34;100.00;154014.75;5024814;28;20456;-87
2024/03/18 06:53:50;;;;;;;16.90;14.33;;;;;;;10.35;100.00;154017.38;5017051;28;20451;-87
2024/03/18 06:56:17;;;;;;;17.80;14.23;;;;;;;10.36;100.00;154021.22;5018499;28;20807;-87
2024/03/18 06:58:43;;;;;;;13.93;12.50;;;;;;;10.38;100.00;154025.09;5021318;28;20452;-87
2024/03/18 07:01:10;;;;;;;15.47;13.23;;;;;;;10.39;100.00;154029.00;5020221;28;20468;-88
2024/03/18 07:03:38;;;;;;;14.70;12.17;;;;;;;10.39;100.00;154027.69;5018170;28;20455;-88
2024/03/18 07:06:05;;;;;;;16.23;13.00;;;;;;;10.44;100.00;154040.63;5019733;28;20483;-87
2024/03/18 07:08:33;;;;;;;13.57;12.00;;;;;;;10.45;100.00;154043.25;5024763;28;20447;-88
2024/03/18 07:11:00;;;;;;;13.30;12.00;;;;;;;10.47;100.00;154048.41;5010120;28;21020;-88
2024/03/18 07:13:25;;;;;;;14.87;11.70;;;;;;;10.47;100.00;154048.41;5026643;28;20468;-88
2024/03/18 07:15:54;;;;;;;12.83;11.37;;;;;;;10.49;100.00;154052.28;5019561;28;20467;-88
2024/03/18 07:18:21;;;;;;;13.80;10.90;;;;;;;10.51;100.00;154057.50;5024607;28;20202;-88
2024/03/18 07:20:47;;;;;;;14.87;11.40;;;;;;;10.55;100.00;154069.13;5019985;28;20872;-88
2024/03/18 07:23:14;;;;;;;11.40;10.30;;;;;;;10.53;100.00;154062.66;5017340;28;20452;-88
2024/03/18 07:25:42;;;;;;;10.57;9.57;;;;;;;10.53;100.00;154063.97;5017728;28;20452;-88
2024/03/18 07:28:09;;;;;;;12.90;10.20;;;;;;;10.55;100.00;154069.13;5017572;28;20476;-88
2024/03/18 07:30:35;;;;;;;8.60;7.70;;;;;;;10.53;100.00;154063.97;5019128;28;20464;-88
2024/03/18 07:33:02;;;;;;;10.37;8.27;;;;;;;10.53;100.00;154063.97;5026240;28;20456;-87
2024/03/18 07:35:29;;;;;;;11.80;7.40;;;;;;;10.54;100.00;154065.28;5024689;28;20542;-87
2024/03/18 07:37:55;;;;;;;7.77;6.97;;;;;;;10.55;100.00;154069.13;5027474;28;20525;-87
2024/03/18 07:40:22;;;;;;;8.40;7.53;;;;;;;10.55;100.00;154069.13;5028779;28;20871;-88
2024/03/18 07:42:50;;;;;;;7.73;7.00;;;;;;;10.56;100.00;154070.44;5036916;28;20456;-89
2024/03/18 07:45:17;;;;;;;9.93;7.17;;;;;;;10.57;100.00;154074.31;5013005;28;20455;-88
2024/03/18 07:47:43;;;;;;;7.57;6.77;;;;;;;10.58;100.00;154075.59;5020787;28;20511;-88
2024/03/18 07:50:11;;;;;;;7.20;6.50;;;;;;;10.56;100.00;154071.75;5036441;28;20463;-88
2024/03/18 07:52:37;;;;;;;8.60;6.97;;;;;;;10.57;100.00;154074.31;5027205;28;20457;-89
2024/03/18 07:55:04;;;;;;;8.70;7.80;;;;;;;10.58;100.00;154075.59;5016368;28;20884;-88
2024/03/18 07:57:31;;;;;;;7.73;6.93;;;;;;;10.59;100.00;154078.22;5034933;28;20451;-88
2024/03/18 07:59:59;;;;;;;8.10;7.30;;;;;;;10.58;100.00;154075.59;5035742;28;20819;-91
2024/03/18 08:02:26;;;;;;;10.47;7.63;;;;;;;10.59;100.00;154078.22;5035597;28;20552;-88
2024/03/18 08:04:53;;;;;;;8.17;7.17;;;;;;;10.57;100.00;154073.00;5033014;28;20480;-91
2024/03/18 08:07:20;;;;;;;9.17;7.83;;;;;;;10.61;100.00;154083.38;5030170;28;20492;-91
2024/03/18 08:09:46;;;;;;;9.37;7.90;;;;;;;10.62;100.00;154087.25;5035017;28;20463;-91
2024/03/18 08:12:13;;;;;;;11.17;7.77;;;;;;;10.55;100.00;154067.84;5038516;28;20460;-91
2024/03/18 08:14:42;;;;;;;56.23;14.07;;;;;;;10.52;100.00;154060.06;5035254;28;20462;-90
2024/03/18 08:17:11;;;;;;;31.30;11.03;;;;;;;10.46;100.00;154044.56;5032093;28;21127;-89
2024/03/18 08:19:38;;;;;;;14.83;9.97;;;;;;;10.44;100.00;154039.34;5033742;28;20452;-90
2024/03/18 08:22:04;;;;;;;12.87;9.60;;;;;;;10.47;100.00;154047.13;5033477;28;20470;-90
2024/03/18 08:24:31;;;;;;;11.97;10.03;;;;;;;10.46;100.00;154045.81;5033868;28;20530;-90
2024/03/18 08:26:58;;;;;;;10.87;9.03;;;;;;;10.48;100.00;154051.03;5030451;28;20577;-90
2024/03/18 08:29:24;;;;;;;11.63;8.90;;;;;;;10.52;100.00;154061.34;5017011;28;20951;-90
2024/03/18 08:31:51;;;;;;;9.63;8.60;;;;;;;10.54;100.00;154065.28;5031979;28;20462;-90
2024/03/18 08:34:21;;;;;;;10.53;7.93;;;;;;;10.56;100.00;154071.75;5034372;28;20455;-90
2024/03/18 08:36:48;;;;;;;10.47;8.63;;;;;;;10.60;100.00;154082.06;5016461;28;20447;-90
2024/03/18 08:39:16;;;;;;;10.40;9.30;;;;;;;10.59;100.00;154079.47;5029766;28;20452;-89
2024/03/18 08:41:42;;;;;;;10.33;8.70;;;;;;;10.55;100.00;154069.13;5014287;28;20482;-90
2024/03/18 08:44:09;;;;;;;9.27;8.30;;;;;;;10.57;100.00;154074.31;5026294;28;20455;-89
2024/03/18 08:46:35;;;;;;;11.13;9.70;;;;;;;10.58;100.00;154076.91;5022386;28;20499;-89
2024/03/18 08:49:02;;;;;;;9.90;8.87;;;;;;;10.62;100.00;154085.94;5027139;28;20482;-89
2024/03/18 08:51:46;;;;;;;9.67;8.07;;;;;;;10.68;100.00;154102.78;5025661;28;20463;-89
2024/03/18 08:54:14;;;;;;;9.67;8.57;;;;;;;10.72;100.00;154113.13;5027155;28;20448;-89
2024/03/18 08:56:41;;;;;;;10.60;9.03;;;;;;;10.78;100.00;154127.38;5015001;28;20553;-89
2024/03/18 08:59:07;;;;;;;11.97;9.30;;;;;;;10.80;100.00;154133.84;5032075;28;20536;-89
2024/03/18 09:01:34;;;;;;;9.47;8.50;;;;;;;10.80;100.00;154133.84;5028972;28;20494;-90
2024/03/18 09:04:00;;;;;;;10.43;9.43;;;;;;;10.81;100.00;154136.47;5027046;28;20935;-89
2024/03/18 09:06:27;;;;;;;9.63;8.73;;;;;;;10.82;100.00;154139.06;5024407;28;20487;-88
2024/03/18 09:08:54;;;;;;;10.53;9.43;;;;;;;10.83;100.00;154141.63;5006834;28;20484;-89
2024/03/18 09:11:21;;;;;;;12.50;9.83;;;;;;;10.85;100.00;154146.84;5025999;28;20543;-90
2024/03/18 09:13:47;;;;;;;11.53;9.60;;;;;;;10.86;100.00;154148.09;5028202;28;20455;-90
2024/03/18 09:16:14;;;;;;;10.63;9.53;;;;;;;10.87;100.00;154152.03;5026320;28;20958;-89
2024/03/18 09:18:41;;;;;;;11.47;9.60;;;;;;;10.90;100.00;154158.50;5029177;28;20464;-89
2024/03/18 09:21:08;;;;;;;10.50;9.40;;;;;;;10.92;100.00;154164.97;5034360;28;20536;-89
2024/03/18 09:23:34;;;;;;;9.93;8.90;;;;;;;10.94;100.00;154170.13;5013308;28;20468;-90
2024/03/18 09:26:02;;;;;;;11.70;8.90;;;;;;;10.98;100.00;154179.22;5030048;28;20463;-89
2024/03/18 09:28:29;;;;;;;10.43;8.47;;;;;;;10.99;100.00;154183.09;5021557;28;20471;-90
2024/03/18 09:31:01;;;;;;;11.57;9.30;;;;;;;10.93;100.00;154166.28;5032153;28;20482;-90
2024/03/18 09:33:28;;;;;;;12.30;9.67;;;;;;;10.87;100.00;154150.72;5014067;28;20544;-90
2024/03/18 09:35:55;;;;;;;11.70;9.07;;;;;;;10.84;100.00;154144.25;5020670;28;20451;-89
2024/03/18 09:38:21;;;;;;;11.70;10.00;;;;;;;10.88;100.00;154154.56;5030475;28;21063;-90
2024/03/18 09:40:48;;;;;;;12.70;10.17;;;;;;;10.93;100.00;154167.53;5033296;28;20448;-90
2024/03/18 09:43:16;;;;;;;11.73;9.83;;;;;;;10.95;100.00;154172.75;5031851;28;20459;-90
2024/03/18 09:45:43;;;;;;;12.17;9.80;;;;;;;10.93;100.00;154166.28;5026325;28;20463;-91
2024/03/18 09:48:14;;;;;;;11.33;10.23;;;;;;;10.91;100.00;154161.06;5003596;28;20480;-91
2024/03/18 09:50:41;;;;;;;12.47;11.03;;;;;;;10.92;100.00;154163.66;5020048;28;20460;-90
2024/03/18 09:53:10;;;;;;;13.10;11.10;;;;;;;10.93;100.00;154167.53;5019264;28;20896;-89
2024/03/18 09:55:37;;;;;;;11.37;9.60;;;;;;;10.86;100.00;154148.09;5009150;28;21067;-90
2024/03/18 09:58:04;;;;;;;12.83;11.33;;;;;;;10.82;100.00;154139.06;5003836;28;20509;-90
2024/03/18 10:00:33;;;;;;;11.93;10.20;;;;;;;10.90;100.00;154158.50;5017098;28;20456;-90
2024/03/18 10:03:00;;;;;;;12.23;11.03;;;;;;;10.93;100.00;154166.28;5024700;28;20448;-90
2024/03/18 10:05:28;;;;;;;12.00;10.77;;;;;;;10.92;100.00;154163.66;5018499;28;20532;-89
2024/03/18 10:07:56;;;;;;;16.27;12.17;;;;;;;10.93;100.00;154167.53;5019756;28;20477;-89
2024/03/18 10:10:22;;;;;;;11.30;10.00;;;;;;;10.94;100.00;154168.81;5003086;28;20462;-89
2024/03/18 10:12:49;;;;;;;15.90;11.53;;;;;;;11.00;100.00;154184.38;5020912;28;20456;-89
2024/03/18 10:15:16;;;;;;;12.40;11.10;;;;;;;11.02;100.00;154189.56;5026286;28;20440;-89
2024/03/18 10:17:44;;;;;;;12.60;11.23;;;;;;;11.04;100.00;154194.72;5031616;28;20448;-88
2024/03/18 10:20:18;;;;;;;15.63;11.37;;;;;;;11.11;100.00;154211.59;5025792;28;20503;-90
2024/03/18 10:22:46;;;;;;;11.70;10.50;;;;;;;11.15;100.00;154221.94;5001693;28;20526;-91
2024/03/18 10:25:16;;;;;;;16.30;12.77;;;;;;;11.15;100.00;154221.94;5019817;28;20571;-90
2024/03/18 10:27:43;;;;;;;14.83;11.20;;;;;;;11.15;100.00;154221.94;5028377;28;20484;-91
2024/03/18 10:30:12;;;;;;;14.10;10.90;;;;;;;11.10;100.00;154208.97;5019772;28;20466;-91
2024/03/18 10:32:39;;;;;;;13.17;10.90;;;;;;;11.04;100.00;154194.72;5018865;28;20458;-90
2024/03/18 10:35:13;;;;;;;14.13;11.70;;;;;;;11.06;100.00;154198.63;5017544;28;20455;-91
2024/03/18 10:37:40;;;;;;;12.50;9.80;;;;;;;11.08;100.00;154203.81;5025139;28;20452;-90
2024/03/18 10:40:08;;;;;;;11.80;10.60;;;;;;;11.12;100.00;154214.19;5021471;28;20453;-90
2024/03/18 10:42:41;;;;;;;14.60;11.20;;;;;;;11.13;100.00;154216.75;5023616;28;21044;-90
2024/03/18 10:45:16;;;;;;;13.73;12.17;;;;;;;11.16;100.00;154224.53;5017668;28;20483;-91
2024/03/18 10:47:43;;;;;;;14.70;11.57;;;;;;;11.14;100.00;154219.38;5007636;28;20459;-90
2024/03/18 10:50:14;;;;;;;12.67;10.57;;;;;;;11.10;100.00;154210.28;5020106;28;20535;-91
2024/03/18 10:52:41;;;;;;;13.63;10.20;;;;;;;11.12;100.00;154214.19;5007097;28;20554;-90
2024/03/18 10:55:15;;;;;;;14.27;10.97;;;;;;;11.11;100.00;154211.59;5018793;28;20459;-90
2024/03/18 10:57:42;;;;;;;14.33;11.10;;;;;;;11.13;100.00;154218.06;5017197;28;20447;-90
2024/03/18 11:00:12;;;;;;;11.53;9.77;;;;;;;11.11;100.00;154212.88;5023659;28;20543;-90
2024/03/18 11:02:40;;;;;;;12.73;9.80;;;;;;;11.14;100.00;154219.38;5021599;28;20546;-90
2024/03/18 11:05:22;;;;;;;16.73;12.77;;;;;;;11.22;100.00;154241.41;5016536;28;20455;-90
2024/03/18 11:07:53;;;;;;;14.90;12.47;;;;;;;11.29;100.00;154259.53;5002014;28;20484;-90